Time;durP1;ratioP1;P1;durP2;ratioP2;P2;SDS_P1;SDS_P2;PMS_P1;PMS_P2;Temp;Humidity;BMP_temperature;BMP_pressure;BME280_temperature;BME280_humidity;BME280_pressure;Samples;Min_cycle;Max_cycle;Signal;HPM_P1;HPM_P2
2021/09/12 00:02:24;;;;;;;5.82;5.10;;;17.70;95.00;;;;;;5037175;28;20029;-91
2021/09/12 00:04:49;;;;;;;6.32;4.80;;;17.70;95.10;;;;;;5036747;28;20025;-92
2021/09/12 00:07:15;;;;;;;7.05;5.13;;;17.70;95.00;;;;;;5036225;28;20055;-92
2021/09/12 00:09:41;;;;;;;5.57;4.50;;;17.70;95.10;;;;;;5035530;28;20052;-92
2021/09/12 00:12:07;;;;;;;5.28;4.72;;;17.60;95.00;;;;;;5052400;28;20017;-91
2021/09/12 00:14:32;;;;;;;7.90;4.57;;;17.60;95.10;;;;;;5026361;28;20056;-93
2021/09/12 00:16:58;;;;;;;5.80;5.30;;;17.60;95.10;;;;;;5037063;28;20048;-92
2021/09/12 00:19:24;;;;;;;6.25;5.40;;;17.50;95.10;;;;;;5037084;28;20092;-91
2021/09/12 00:21:51;;;;;;;6.60;5.32;;;17.40;95.00;;;;;;5036823;28;20075;-91
2021/09/12 00:24:17;;;;;;;9.48;6.07;;;17.40;95.00;;;;;;5037561;28;20025;-92
2021/09/12 00:26:43;;;;;;;8.15;5.75;;;17.30;95.00;;;;;;5053627;28;20024;-92
2021/09/12 00:29:09;;;;;;;7.82;5.57;;;17.30;95.00;;;;;;5057904;28;20236;-93
2021/09/12 00:31:35;;;;;;;7.85;6.20;;;17.20;95.10;;;;;;5046044;28;20032;-93
2021/09/12 00:34:01;;;;;;;6.88;5.40;;;17.20;95.20;;;;;;5036739;28;20028;-92
2021/09/12 00:36:26;;;;;;;5.72;5.13;;;17.20;95.20;;;;;;5017063;28;20021;-92
2021/09/12 00:38:52;;;;;;;7.95;6.10;;;17.20;95.20;;;;;;5032814;28;20044;-92
2021/09/12 00:41:18;;;;;;;7.03;6.07;;;17.10;95.30;;;;;;5027626;28;20037;-91
2021/09/12 00:43:44;;;;;;;6.35;5.05;;;17.10;95.40;;;;;;5025315;28;20025;-91
2021/09/12 00:46:11;;;;;;;8.07;6.15;;;17.10;95.40;;;;;;5036943;28;20515;-92
2021/09/12 00:48:38;;;;;;;7.07;5.88;;;17.20;95.40;;;;;;5017298;28;20393;-92
2021/09/12 00:51:05;;;;;;;7.80;5.88;;;17.10;95.40;;;;;;5017480;28;20093;-92
2021/09/12 00:53:36;;;;;;;7.10;5.95;;;17.10;95.40;;;;;;5031673;28;20170;-92
2021/09/12 00:56:02;;;;;;;9.07;6.47;;;17.10;95.30;;;;;;5037155;28;20047;-93
2021/09/12 00:58:29;;;;;;;7.70;5.90;;;17.00;95.30;;;;;;5036843;28;20021;-92
2021/09/12 01:00:56;;;;;;;7.43;5.70;;;17.00;95.40;;;;;;5036604;28;20021;-92
2021/09/12 01:03:22;;;;;;;8.63;6.07;;;17.00;95.40;;;;;;5036665;28;20048;-91
2021/09/12 01:05:48;;;;;;;7.93;6.45;;;17.00;95.40;;;;;;5036667;28;20477;-92
2021/09/12 01:08:13;;;;;;;8.50;6.03;;;17.00;95.40;;;;;;5036076;28;20124;-91
2021/09/12 01:10:42;;;;;;;9.13;6.55;;;16.90;95.40;;;;;;5035904;28;20201;-92
2021/09/12 01:13:08;;;;;;;8.55;6.07;;;16.90;95.50;;;;;;5020604;28;20029;-92
2021/09/12 01:15:34;;;;;;;9.82;5.60;;;16.90;95.40;;;;;;5035257;28;20215;-92
2021/09/12 01:18:00;;;;;;;6.95;5.68;;;16.80;95.50;;;;;;5036525;28;20029;-91
2021/09/12 01:20:26;;;;;;;6.68;5.68;;;16.80;95.60;;;;;;5038453;28;20698;-92
2021/09/12 01:22:52;;;;;;;7.50;5.95;;;16.80;95.60;;;;;;5040310;28;20028;-92
2021/09/12 01:25:18;;;;;;;7.10;5.43;;;16.90;95.60;;;;;;5040622;28;20032;-92
2021/09/12 01:27:43;;;;;;;6.28;5.03;;;16.90;95.60;;;;;;5040689;28;20021;-91
2021/09/12 01:30:10;;;;;;;7.22;5.25;;;16.90;95.60;;;;;;5031469;28;20116;-92
2021/09/12 01:32:36;;;;;;;6.45;5.55;;;16.90;95.50;;;;;;5020700;28;20029;-92
2021/09/12 01:35:03;;;;;;;8.50;5.50;;;16.80;95.50;;;;;;5020465;28;20018;-92
2021/09/12 01:37:29;;;;;;;8.80;5.90;;;16.80;95.50;;;;;;5020464;28;20048;-92
2021/09/12 01:39:55;;;;;;;6.47;5.68;;;16.80;95.50;;;;;;5020906;28;20493;-92
2021/09/12 01:42:21;;;;;;;8.65;6.20;;;16.70;95.50;;;;;;5020564;28;20117;-92
2021/09/12 01:44:48;;;;;;;7.53;6.10;;;16.70;95.60;;;;;;5022746;28;20565;-91
2021/09/12 01:47:17;;;;;;;9.00;6.22;;;16.60;95.50;;;;;;5023436;28;20034;-92
2021/09/12 01:49:44;;;;;;;6.63;5.88;;;16.50;95.40;;;;;;5020819;28;20072;-92
2021/09/12 01:52:14;;;;;;;7.88;6.13;;;16.40;95.40;;;;;;5032665;28;20029;-93
2021/09/12 01:54:40;;;;;;;7.65;6.40;;;16.30;95.40;;;;;;5039903;28;20025;-91
2021/09/12 01:57:06;;;;;;;7.50;6.18;;;16.30;95.40;;;;;;5039748;28;20067;-92
2021/09/12 01:59:33;;;;;;;8.93;7.18;;;16.10;95.40;;;;;;5057257;28;20017;-92
2021/09/12 02:01:59;;;;;;;8.27;6.50;;;16.10;95.50;;;;;;5058173;28;20033;-93
2021/09/12 02:04:25;;;;;;;10.50;7.32;;;16.00;95.50;;;;;;5059454;28;20104;-93
2021/09/12 02:06:51;;;;;;;7.97;6.00;;;15.90;95.50;;;;;;5055130;28;20025;-93
2021/09/12 02:09:16;;;;;;;12.32;7.82;;;15.80;95.60;;;;;;5044675;28;20028;-91
2021/09/12 02:11:42;;;;;;;9.13;7.00;;;15.80;95.70;;;;;;5045014;28;20492;-92
2021/09/12 02:14:08;;;;;;;8.68;7.18;;;15.80;95.80;;;;;;5035780;28;20489;-92
2021/09/12 02:16:34;;;;;;;13.07;8.50;;;15.80;95.90;;;;;;5043601;28;20112;-92
2021/09/12 02:18:59;;;;;;;11.38;8.57;;;15.80;95.90;;;;;;5043721;28;20021;-92
2021/09/12 02:21:25;;;;;;;12.43;9.20;;;15.80;95.90;;;;;;5042533;28;20029;-92
2021/09/12 02:23:51;;;;;;;11.20;8.70;;;15.80;95.90;;;;;;5042981;28;20021;-92
2021/09/12 02:26:17;;;;;;;10.63;8.18;;;15.80;95.90;;;;;;5045402;28;20049;-92
2021/09/12 02:28:43;;;;;;;12.63;8.80;;;15.80;95.90;;;;;;5043663;28;20032;-92
2021/09/12 02:31:08;;;;;;;12.90;8.65;;;15.80;95.90;;;;;;5042894;28;20052;-92
2021/09/12 02:33:34;;;;;;;12.25;9.65;;;15.70;95.90;;;;;;5043606;28;20032;-93
2021/09/12 02:36:03;;;;;;;14.38;10.57;;;15.70;95.90;;;;;;5043207;28;20029;-92
2021/09/12 02:38:30;;;;;;;18.45;11.77;;;15.60;95.90;;;;;;5059225;22;20153;-67
2021/09/12 02:40:59;;;;;;;15.45;11.25;;;15.60;95.90;;;;;;5035917;28;20044;-66
2021/09/12 02:43:25;;;;;;;15.30;10.82;;;15.50;95.90;;;;;;5032317;28;20075;-67
2021/09/12 02:45:50;;;;;;;18.17;11.27;;;15.50;96.00;;;;;;5019169;28;20101;-66
2021/09/12 02:48:16;;;;;;;28.52;11.25;;;15.50;96.20;;;;;;5014251;28;20109;-66
2021/09/12 02:50:41;;;;;;;18.00;10.52;;;15.40;96.40;;;;;;5031600;28;20040;-66
2021/09/12 02:53:07;;;;;;;12.20;9.82;;;15.50;96.20;;;;;;5032109;28;20112;-66
2021/09/12 02:55:33;;;;;;;15.15;10.77;;;15.50;96.10;;;;;;5032548;28;20017;-67
2021/09/12 02:57:58;;;;;;;13.35;9.32;;;15.50;96.20;;;;;;5032510;28;20025;-66
2021/09/12 03:00:24;;;;;;;21.50;8.68;;;15.40;96.30;;;;;;5032189;28;20049;-66
2021/09/12 03:02:49;;;;;;;10.88;8.52;;;15.50;96.30;;;;;;5031990;28;20025;-67
2021/09/12 03:05:15;;;;;;;13.05;9.13;;;15.50;96.20;;;;;;5031816;28;20385;-68
2021/09/12 03:07:40;;;;;;;10.20;8.10;;;15.40;96.30;;;;;;5032434;28;20068;-66
2021/09/12 03:10:06;;;;;;;11.00;7.95;;;15.40;96.30;;;;;;5032425;28;20029;-66
2021/09/12 03:12:32;;;;;;;8.32;7.35;;;15.50;96.20;;;;;;5005882;28;20030;-67
2021/09/12 03:14:57;;;;;;;10.00;7.35;;;15.40;96.30;;;;;;5031743;28;20021;-66
2021/09/12 03:17:23;;;;;;;9.18;7.50;;;15.40;96.30;;;;;;5032110;28;20021;-66
2021/09/12 03:19:48;;;;;;;9.82;7.35;;;15.50;96.30;;;;;;5031574;28;20391;-66
2021/09/12 03:22:14;;;;;;;11.00;7.68;;;15.40;96.20;;;;;;5032180;28;20026;-66
2021/09/12 03:24:40;;;;;;;10.88;7.65;;;15.40;96.20;;;;;;5031637;28;20474;-66
2021/09/12 03:27:05;;;;;;;8.73;6.85;;;15.30;96.10;;;;;;5031879;28;20029;-69
2021/09/12 03:29:31;;;;;;;9.20;7.28;;;15.30;96.20;;;;;;5031844;28;20163;-66
2021/09/12 03:31:57;;;;;;;8.43;6.50;;;15.30;96.30;;;;;;5031842;28;20036;-66
2021/09/12 03:34:24;;;;;;;8.45;6.43;;;15.30;96.30;;;;;;5031176;28;20025;-66
2021/09/12 03:36:49;;;;;;;9.25;6.82;;;15.30;96.30;;;;;;5031130;28;20027;-66
2021/09/12 03:39:15;;;;;;;7.78;6.53;;;15.30;96.30;;;;;;5031709;28;20689;-66
2021/09/12 03:41:41;;;;;;;8.82;6.95;;;15.20;96.20;;;;;;5031069;28;20026;-66
2021/09/12 03:44:07;;;;;;;8.55;6.55;;;15.20;96.20;;;;;;5030764;28;20025;-66
2021/09/12 03:46:32;;;;;;;9.10;6.53;;;15.20;96.20;;;;;;5020624;28;20033;-66
2021/09/12 03:48:58;;;;;;;7.90;6.78;;;15.10;96.20;;;;;;5013665;28;20164;-69
2021/09/12 03:51:23;;;;;;;8.20;6.80;;;15.10;96.20;;;;;;5031418;28;20394;-66
2021/09/12 03:53:49;;;;;;;8.38;6.93;;;15.00;96.20;;;;;;5030921;28;20108;-66
2021/09/12 03:56:14;;;;;;;8.77;7.03;;;14.90;96.30;;;;;;5031474;28;20040;-67
2021/09/12 03:58:40;;;;;;;9.07;6.97;;;14.90;96.30;;;;;;5031203;28;20028;-69
2021/09/12 04:01:06;;;;;;;10.00;7.57;;;14.90;96.40;;;;;;5031450;28;20097;-65
2021/09/12 04:03:31;;;;;;;11.65;7.70;;;15.00;96.70;;;;;;5030491;28;20488;-66
2021/09/12 04:05:57;;;;;;;8.60;6.80;;;15.00;96.50;;;;;;5031215;28;20079;-66
2021/09/12 04:08:22;;;;;;;8.27;6.68;;;15.00;96.50;;;;;;5031219;28;20159;-69
2021/09/12 04:10:48;;;;;;;8.10;6.05;;;15.00;96.50;;;;;;5031112;28;20474;-66
2021/09/12 04:13:13;;;;;;;9.05;7.07;;;15.10;96.80;;;;;;5022522;28;20385;-67
2021/09/12 04:15:39;;;;;;;6.15;5.55;;;15.00;96.50;;;;;;5031223;28;20021;-66
2021/09/12 04:18:04;;;;;;;7.55;6.07;;;15.10;96.50;;;;;;5030989;28;20022;-66
2021/09/12 04:20:30;;;;;;;10.55;6.35;;;15.10;96.50;;;;;;5011146;28;20037;-66
2021/09/12 04:22:56;;;;;;;9.00;6.88;;;15.10;96.50;;;;;;5010881;28;20048;-66
2021/09/12 04:25:21;;;;;;;8.07;6.25;;;15.10;96.50;;;;;;5011087;28;20030;-67
2021/09/12 04:27:47;;;;;;;7.85;5.78;;;15.10;96.50;;;;;;5011311;28;20453;-68
2021/09/12 04:30:14;;;;;;;9.02;5.60;;;15.10;96.40;;;;;;5011083;28;20026;-66
2021/09/12 04:32:40;;;;;;;14.20;5.78;;;15.00;96.20;;;;;;5010583;28;20014;-66
2021/09/12 04:35:06;;;;;;;7.63;5.95;;;14.90;96.10;;;;;;5029405;28;20149;-66
2021/09/12 04:37:32;;;;;;;6.40;5.25;;;14.70;96.10;;;;;;5030881;28;20025;-66
2021/09/12 04:39:58;;;;;;;12.77;5.63;;;14.60;96.30;;;;;;5030808;28;20029;-67
2021/09/12 04:42:23;;;;;;;53.42;4.95;;;14.60;96.40;;;;;;5030851;28;20026;-68
2021/09/12 04:44:49;;;;;;;89.68;4.90;;;14.50;96.40;;;;;;5029957;28;20026;-66
2021/09/12 04:47:14;;;;;;;9.25;3.60;;;14.40;96.20;;;;;;5022205;28;20029;-66
2021/09/12 04:49:40;;;;;;;10.80;3.35;;;14.30;96.10;;;;;;5030125;28;20041;-66
2021/09/12 04:52:07;;;;;;;13.10;3.75;;;14.20;96.40;;;;;;5030582;28;20025;-66
2021/09/12 04:54:32;;;;;;;4.18;3.78;;;14.20;96.40;;;;;;5029836;28;20025;-66
2021/09/12 04:56:58;;;;;;;7.38;4.47;;;14.20;96.60;;;;;;5030571;28;20052;-68
2021/09/12 04:59:23;;;;;;;8.40;4.13;;;14.10;96.50;;;;;;5031288;28;20026;-67
2021/09/12 05:01:49;;;;;;;79.57;4.88;;;14.10;96.50;;;;;;5030782;28;20029;-66
2021/09/12 05:04:14;;;;;;;5.50;3.85;;;14.00;96.40;;;;;;5015165;28;20450;-66
2021/09/12 05:06:40;;;;;;;34.35;5.25;;;13.90;96.40;;;;;;4993350;28;20026;-67
2021/09/12 05:09:06;;;;;;;56.55;5.28;;;13.90;96.50;;;;;;5010653;28;20029;-66
2021/09/12 05:11:32;;;;;;;4.60;4.05;;;13.90;96.60;;;;;;5010542;28;20089;-66
2021/09/12 05:13:57;;;;;;;5.70;4.68;;;13.80;96.60;;;;;;5024286;28;20361;-70
2021/09/12 05:16:23;;;;;;;5.65;4.53;;;13.90;96.80;;;;;;5030200;28;20026;-66
2021/09/12 05:18:50;;;;;;;55.00;4.65;;;13.90;96.90;;;;;;5030019;28;20501;-67
2021/09/12 05:21:17;;;;;;;9.73;3.60;;;13.90;96.80;;;;;;5029997;28;20021;-66
2021/09/12 05:23:43;;;;;;;5.78;3.63;;;13.90;96.50;;;;;;5029855;28;20053;-66
2021/09/12 05:26:08;;;;;;;14.88;4.45;;;13.80;96.70;;;;;;5020656;28;20064;-68
2021/09/12 05:28:34;;;;;;;4.25;3.83;;;13.80;96.90;;;;;;5018456;28;20121;-66
2021/09/12 05:31:00;;;;;;;28.65;3.60;;;13.90;97.00;;;;;;5010205;28;20022;-66
2021/09/12 05:33:26;;;;;;;8.23;3.53;;;13.90;97.00;;;;;;5024033;28;20056;-66
2021/09/12 05:35:51;;;;;;;44.25;3.55;;;13.90;96.80;;;;;;5029966;28;20528;-66
2021/09/12 05:38:17;;;;;;;16.48;3.65;;;13.90;96.80;;;;;;5029852;28;20056;-68
2021/09/12 05:40:42;;;;;;;5.32;3.28;;;13.90;96.90;;;;;;5030378;28;20036;-66
2021/09/12 05:43:08;;;;;;;20.10;3.83;;;13.90;96.90;;;;;;5029869;28;20060;-66
2021/09/12 05:45:34;;;;;;;26.90;3.47;;;13.90;96.80;;;;;;5029759;28;20025;-67
2021/09/12 05:47:59;;;;;;;14.10;3.00;;;13.90;96.80;;;;;;5029523;28;20040;-67
2021/09/12 05:50:25;;;;;;;17.75;3.72;;;13.90;96.90;;;;;;5029865;28;20030;-68
2021/09/12 05:52:50;;;;;;;27.15;3.65;;;13.80;97.00;;;;;;5029318;28;20507;-66
2021/09/12 05:55:16;;;;;;;19.65;3.75;;;13.80;97.00;;;;;;5012256;28;20022;-66
2021/09/12 05:57:41;;;;;;;18.77;4.25;;;13.80;97.00;;;;;;5030187;28;20029;-66
2021/09/12 06:00:09;;;;;;;19.30;3.67;;;13.80;97.00;;;;;;5030053;28;20460;-67
2021/09/12 06:02:34;;;;;;;6.25;3.40;;;13.80;97.10;;;;;;5028039;28;20026;-66
2021/09/12 06:05:03;;;;;;;4.30;3.58;;;13.80;97.20;;;;;;5009971;28;20151;-67
2021/09/12 06:07:30;;;;;;;14.95;3.80;;;13.90;97.20;;;;;;5013748;28;20029;-66
2021/09/12 06:09:55;;;;;;;12.07;4.05;;;13.90;97.20;;;;;;5013655;28;20053;-66
2021/09/12 06:12:21;;;;;;;12.52;4.35;;;14.00;97.10;;;;;;5026006;28;20025;-66
2021/09/12 06:14:47;;;;;;;5.65;4.95;;;13.90;97.10;;;;;;5032342;28;20026;-66
2021/09/12 06:17:12;;;;;;;7.07;4.93;;;13.90;97.20;;;;;;5033400;28;20504;-66
2021/09/12 06:19:38;;;;;;;7.55;4.55;;;14.00;97.30;;;;;;5028895;28;20497;-69
2021/09/12 06:22:05;;;;;;;11.32;5.10;;;14.00;97.30;;;;;;5032677;28;20021;-66
2021/09/12 06:24:31;;;;;;;4.43;4.03;;;14.10;97.40;;;;;;5032279;28;20553;-67
2021/09/12 06:26:56;;;;;;;9.82;5.10;;;14.10;97.30;;;;;;5032124;28;20116;-67
2021/09/12 06:29:22;;;;;;;8.57;4.90;;;14.20;97.30;;;;;;5032405;28;20037;-66
2021/09/12 06:31:48;;;;;;;24.15;5.22;;;14.30;97.40;;;;;;5032659;28;20030;-66
2021/09/12 06:34:13;;;;;;;15.18;5.00;;;14.30;97.10;;;;;;5032443;28;20493;-66
2021/09/12 06:36:39;;;;;;;7.43;4.90;;;14.30;97.10;;;;;;5031462;28;20485;-66
2021/09/12 06:39:05;;;;;;;6.68;5.25;;;14.20;97.10;;;;;;5032776;28;20033;-66
2021/09/12 06:41:30;;;;;;;13.27;6.07;;;14.30;97.20;;;;;;5032749;28;20339;-66
2021/09/12 06:43:56;;;;;;;12.27;5.43;;;14.40;97.30;;;;;;5032054;28;20470;-65
2021/09/12 06:46:21;;;;;;;7.80;5.43;;;14.40;97.30;;;;;;5032614;28;20473;-66
2021/09/12 06:48:47;;;;;;;6.00;5.20;;;14.50;97.30;;;;;;5032657;28;20037;-67
2021/09/12 06:51:13;;;;;;;11.57;5.15;;;14.60;97.30;;;;;;5031714;28;20026;-68
2021/09/12 06:53:39;;;;;;;18.25;5.63;;;14.70;97.30;;;;;;5031909;28;20025;-68
2021/09/12 06:56:05;;;;;;;15.30;6.32;;;14.70;97.20;;;;;;5032399;28;20022;-65
2021/09/12 06:58:31;;;;;;;10.13;5.93;;;14.80;97.10;;;;;;5014657;28;20033;-66
2021/09/12 07:00:58;;;;;;;24.50;5.68;;;14.90;97.20;;;;;;5031971;28;20041;-68
2021/09/12 07:03:24;;;;;;;7.03;6.07;;;14.90;97.10;;;;;;5031845;28;20071;-67
2021/09/12 07:05:50;;;;;;;6.15;5.55;;;15.00;97.10;;;;;;5031462;28;20029;-66
2021/09/12 07:08:15;;;;;;;5.85;5.28;;;15.00;97.00;;;;;;5031438;28;20108;-67
2021/09/12 07:10:42;;;;;;;10.98;6.68;;;15.00;97.10;;;;;;5032266;28;20037;-65
2021/09/12 07:13:07;;;;;;;9.38;5.85;;;15.10;97.20;;;;;;5030861;28;20025;-67
2021/09/12 07:15:33;;;;;;;7.80;6.18;;;15.20;97.10;;;;;;5031639;28;20086;-66
2021/09/12 07:17:58;;;;;;;7.88;6.47;;;15.30;96.90;;;;;;5031885;28;20040;-66
2021/09/12 07:20:24;;;;;;;10.20;7.35;;;15.30;96.80;;;;;;5025690;28;20022;-65
2021/09/12 07:22:50;;;;;;;10.57;7.20;;;15.30;96.90;;;;;;5011387;28;20029;-68
2021/09/12 07:25:15;;;;;;;9.48;7.05;;;15.40;96.80;;;;;;5012219;28;20033;-66
2021/09/12 07:27:41;;;;;;;7.20;6.18;;;15.50;96.80;;;;;;5011702;28;20381;-67
2021/09/12 07:30:07;;;;;;;8.75;6.90;;;15.60;96.90;;;;;;5016101;28;20093;-66
2021/09/12 07:32:33;;;;;;;9.20;7.22;;;15.80;96.90;;;;;;5031394;28;20030;-66
2021/09/12 07:34:58;;;;;;;9.38;7.68;;;16.00;96.70;;;;;;5031393;28;20043;-67
2021/09/12 07:37:24;;;;;;;9.35;7.45;;;16.20;96.40;;;;;;5031738;28;20052;-70
2021/09/12 07:39:49;;;;;;;8.10;7.30;;;16.40;96.10;;;;;;5031500;28;20037;-67
2021/09/12 07:42:15;;;;;;;9.98;7.55;;;16.60;96.00;;;;;;5031577;28;20029;-66
2021/09/12 07:44:40;;;;;;;8.95;6.97;;;16.90;95.70;;;;;;5030592;28;20041;-66
2021/09/12 07:47:06;;;;;;;10.02;6.85;;;17.40;95.30;;;;;;5030936;28;20433;-67
2021/09/12 07:49:31;;;;;;;8.90;7.22;;;17.80;94.80;;;;;;5031120;28;20029;-65
2021/09/12 07:51:57;;;;;;;7.72;6.60;;;18.20;94.50;;;;;;5031251;28;20055;-66
2021/09/12 07:54:23;;;;;;;9.52;7.72;;;18.40;94.10;;;;;;5029196;28;20205;-67
2021/09/12 07:56:48;;;;;;;8.75;7.28;;;18.70;94.00;;;;;;5030163;28;20028;-66
2021/09/12 07:59:14;;;;;;;8.52;6.68;;;18.90;93.70;;;;;;5031020;28;20022;-66
2021/09/12 08:01:39;;;;;;;9.00;6.40;;;19.20;93.60;;;;;;5031296;28;20024;-66
2021/09/12 08:04:05;;;;;;;6.55;5.88;;;19.60;93.00;;;;;;5030600;28;20049;-66
2021/09/12 08:06:30;;;;;;;7.57;5.55;;;19.90;92.30;;;;;;5030942;28;20366;-66
2021/09/12 08:08:56;;;;;;;6.10;5.07;;;20.40;92.10;;;;;;5013320;28;20033;-66
2021/09/12 08:11:22;;;;;;;7.30;5.55;;;20.80;91.60;;;;;;5030541;28;20037;-66
2021/09/12 08:13:47;;;;;;;6.13;5.13;;;21.40;91.20;;;;;;5030563;28;20373;-67
2021/09/12 08:16:13;;;;;;;6.30;4.63;;;21.80;90.70;;;;;;5030758;28;20087;-69
2021/09/12 08:18:39;;;;;;;8.73;5.30;;;22.10;90.20;;;;;;5030851;28;20152;-66
2021/09/12 08:21:04;;;;;;;5.47;4.60;;;22.30;89.60;;;;;;5023820;28;20029;-65
2021/09/12 08:23:30;;;;;;;5.65;4.57;;;22.20;89.60;;;;;;5010431;28;20053;-66
2021/09/12 08:25:55;;;;;;;5.35;4.80;;;22.30;90.10;;;;;;5010836;28;20091;-67
2021/09/12 08:28:21;;;;;;;5.00;4.53;;;22.40;90.30;;;;;;5010388;28;20030;-66
2021/09/12 08:30:47;;;;;;;4.63;4.22;;;22.50;90.50;;;;;;5010821;28;20057;-66
2021/09/12 08:33:14;;;;;;;5.43;4.93;;;22.40;90.40;;;;;;5011796;28;20029;-66
2021/09/12 08:35:41;;;;;;;5.68;5.15;;;22.30;90.50;;;;;;5030381;28;20049;-69
2021/09/12 08:40:42;;;;;;;5.93;5.22;;;22.10;90.80;;;;;;4977912;28;20717;-66
2021/09/12 08:43:08;;;;;;;5.90;5.28;;;22.00;91.00;;;;;;4971387;28;20019;-67
2021/09/12 08:45:34;;;;;;;6.75;4.85;;;22.10;91.00;;;;;;4971920;28;20085;-66
2021/09/12 08:48:00;;;;;;;5.72;4.97;;;22.10;91.00;;;;;;4973265;28;20062;-67
2021/09/12 08:50:26;;;;;;;5.70;5.15;;;22.20;91.00;;;;;;4990816;28;20056;-67
2021/09/12 08:52:52;;;;;;;6.60;4.93;;;22.30;90.90;;;;;;4990565;28;20030;-67
2021/09/12 08:55:18;;;;;;;9.43;5.57;;;22.40;91.10;;;;;;4991191;28;20031;-66
2021/09/12 08:57:52;;;;;;;7.25;5.20;;;22.40;90.70;;;;;;4991138;28;20114;-66
2021/09/12 09:00:24;;;;;;;5.32;4.65;;;22.40;90.40;;;;;;4990979;28;20695;-66
2021/09/12 09:02:58;;;;;;;7.40;5.10;;;22.40;90.70;;;;;;4990304;28;20386;-67
2021/09/12 09:05:29;;;;;;;6.18;4.82;;;22.30;90.20;;;;;;4991004;28;20467;-66
2021/09/12 09:08:17;;;;;;;5.73;5.23;;;22.10;90.40;;;;;;4989611;28;20494;-66
2021/09/12 09:10:43;;;;;;;6.25;5.15;;;21.90;90.20;;;;;;4991136;28;20754;-66
2021/09/12 09:13:32;;;;;;;6.13;5.00;;;21.80;90.70;;;;;;4990308;28;20022;-67
2021/09/12 09:15:59;;;;;;;5.55;5.00;;;21.80;90.70;;;;;;4990974;28;20466;-67
2021/09/12 09:18:33;;;;;;;4.90;4.40;;;21.70;90.60;;;;;;4990526;28;20057;-67
2021/09/12 09:21:00;;;;;;;6.20;4.55;;;21.70;90.60;;;;;;4989169;28;20092;-66
2021/09/12 09:23:26;;;;;;;5.88;4.97;;;21.80;90.20;;;;;;4978508;28;20412;-67
2021/09/12 09:25:53;;;;;;;5.53;4.63;;;21.50;89.00;;;;;;4971541;28;20030;-67
2021/09/12 09:28:20;;;;;;;5.90;4.25;;;21.20;89.80;;;;;;4970851;28;20026;-67
2021/09/12 09:30:54;;;;;;;4.85;4.38;;;21.10;90.00;;;;;;4971332;28;20067;-67
2021/09/12 09:33:28;;;;;;;5.50;3.97;;;21.00;90.00;;;;;;4970990;28;20034;-67
2021/09/12 09:36:06;;;;;;;3.30;3.00;;;20.80;89.80;;;;;;4976174;28;20021;-67
2021/09/12 09:38:35;;;;;;;6.30;4.47;;;20.70;89.60;;;;;;4990551;28;20015;-67
2021/09/12 09:41:18;;;;;;;4.13;3.38;;;20.70;90.10;;;;;;4992239;28;20025;-67
2021/09/12 09:43:45;;;;;;;;;;;20.70;90.40;;;;;;4994257;28;20495;-67
2021/09/12 09:46:30;;;;;;;3.15;2.88;;;20.80;90.50;;;;;;4994595;28;19905;-67
2021/09/12 09:48:58;;;;;;;3.75;3.00;;;20.80;90.30;;;;;;4994193;28;20050;-67
2021/09/12 09:51:24;;;;;;;4.65;2.72;;;20.80;90.40;;;;;;4993787;28;20636;-66
2021/09/12 09:53:50;;;;;;;5.35;3.72;;;20.90;90.10;;;;;;4993327;28;20026;-66
2021/09/12 09:56:17;;;;;;;4.60;3.22;;;21.00;90.20;;;;;;4994087;28;20363;-67
2021/09/12 09:58:43;;;;;;;4.13;3.30;;;21.00;90.20;;;;;;4994344;28;20041;-66
2021/09/12 10:01:09;;;;;;;5.68;3.45;;;21.20;90.30;;;;;;4993935;28;20027;-66
2021/09/12 10:03:36;;;;;;;1.80;1.70;;;21.30;89.60;;;;;;4993731;28;20105;-66
2021/09/12 10:06:02;;;;;;;2.55;1.92;;;21.30;88.70;;;;;;4993464;28;20080;-67
2021/09/12 10:08:28;;;;;;;2.42;1.80;;;21.40;89.30;;;;;;4993875;28;20105;-67
2021/09/12 10:10:54;;;;;;;2.55;1.80;;;21.50;89.50;;;;;;4992867;28;20467;-66
2021/09/12 10:13:22;;;;;;;1.45;1.35;;;21.70;89.40;;;;;;4993593;28;20026;-66
2021/09/12 10:15:51;;;;;;;1.80;1.10;;;21.90;88.60;;;;;;4993640;28;20025;-67
2021/09/12 10:18:24;;;;;;;1.75;1.20;;;22.10;87.80;;;;;;4993773;28;20490;-66
2021/09/12 10:20:50;;;;;;;1.42;0.90;;;22.30;86.80;;;;;;4987542;28;20029;-66
2021/09/12 10:23:15;;;;;;;1.15;1.00;;;22.40;86.10;;;;;;4976426;28;20031;-67
2021/09/12 10:25:50;;;;;;;2.10;1.30;;;22.60;85.90;;;;;;4974219;28;20518;-66
2021/09/12 10:28:29;;;;;;;2.83;1.40;;;22.70;85.40;;;;;;4972615;28;20026;-67
2021/09/12 10:30:55;;;;;;;1.58;1.30;;;22.80;84.50;;;;;;4974059;28;20101;-68
2021/09/12 10:33:23;;;;;;;1.38;1.10;;;22.90;84.90;;;;;;4973813;28;20031;-66
2021/09/12 10:35:58;;;;;;;1.40;1.10;;;23.10;84.50;;;;;;4974142;28;20025;-67
2021/09/12 10:38:29;;;;;;;2.15;1.40;;;23.20;83.80;;;;;;4988291;28;20030;-66
2021/09/12 10:40:55;;;;;;;2.20;1.37;;;23.40;83.30;;;;;;4992311;28;20022;-67
2021/09/12 10:43:27;;;;;;;1.58;1.23;;;23.50;83.10;;;;;;4993197;28;20469;-67
2021/09/12 10:46:04;;;;;;;;;;;23.60;82.20;;;;;;4992589;28;20478;-67
2021/09/12 10:48:49;;;;;;;3.03;1.83;;;23.60;83.60;;;;;;4993297;28;19912;-67
2021/09/12 10:51:20;;;;;;;4.50;4.05;;;23.60;83.10;;;;;;4992813;28;20023;-66
2021/09/12 10:53:46;;;;;;;2.47;2.28;;;23.60;82.70;;;;;;4992450;28;20089;-66
2021/09/12 10:56:12;;;;;;;1.42;1.33;;;23.40;82.70;;;;;;4993291;28;20410;-66
2021/09/12 10:58:39;;;;;;;2.55;1.30;;;23.30;82.60;;;;;;4993030;28;20088;-67
2021/09/12 11:01:06;;;;;;;2.28;1.17;;;23.20;82.00;;;;;;4993208;28;20022;-67
2021/09/12 11:03:33;;;;;;;1.65;1.15;;;23.10;81.90;;;;;;4992500;28;20082;-67
2021/09/12 11:05:59;;;;;;;4.05;1.02;;;23.00;81.90;;;;;;4992889;28;20506;-66
2021/09/12 11:08:35;;;;;;;2.03;1.00;;;22.90;81.70;;;;;;4992325;28;20031;-67
2021/09/12 11:11:02;;;;;;;3.05;0.98;;;22.80;81.40;;;;;;4992943;28;20113;-66
2021/09/12 11:13:28;;;;;;;1.40;1.20;;;22.80;81.70;;;;;;4992321;28;20029;-67
2021/09/12 11:16:16;;;;;;;1.70;1.13;;;23.00;82.00;;;;;;4992719;28;20448;-66
2021/09/12 11:18:49;;;;;;;2.50;1.08;;;23.10;81.60;;;;;;4992683;28;20018;-67
2021/09/12 11:21:36;;;;;;;1.25;0.90;;;23.20;82.10;;;;;;4987266;28;20038;-67
2021/09/12 11:24:18;;;;;;;1.20;1.10;;;23.30;80.40;;;;;;4972611;28;20026;-67
2021/09/12 11:26:49;;;;;;;1.10;0.90;;;23.40;80.20;;;;;;4973210;28;20133;-67
2021/09/12 11:29:19;;;;;;;2.45;1.05;;;23.50;81.20;;;;;;4972879;28;20365;-67
2021/09/12 11:31:47;;;;;;;1.40;1.15;;;23.60;80.70;;;;;;4973052;28;20058;-67
2021/09/12 11:34:15;;;;;;;1.13;1.05;;;23.60;79.50;;;;;;4971353;28;20038;-67
2021/09/12 11:36:50;;;;;;;1.35;1.02;;;23.50;79.40;;;;;;4981411;28;20041;-67
2021/09/12 11:39:20;;;;;;;3.78;1.20;;;23.60;79.50;;;;;;4992342;28;20036;-67
2021/09/12 11:41:46;;;;;;;1.60;1.00;;;23.70;79.50;;;;;;4991255;28;20470;-67
2021/09/12 11:44:12;;;;;;;2.50;0.93;;;23.80;79.70;;;;;;4992003;28;20038;-67
2021/09/12 11:46:49;;;;;;;0.82;0.77;;;24.00;79.50;;;;;;4992288;28;20030;-67
2021/09/12 11:49:16;;;;;;;0.95;0.77;;;24.20;78.30;;;;;;4991113;28;20509;-67
2021/09/12 11:51:46;;;;;;;0.60;0.60;;;24.40;78.40;;;;;;4992129;28;20038;-67
2021/09/12 11:54:18;;;;;;;1.08;0.80;;;24.50;77.80;;;;;;4991715;28;20486;-67
2021/09/12 11:56:52;;;;;;;0.75;0.70;;;24.60;77.70;;;;;;4992046;28;20091;-67
2021/09/12 11:59:18;;;;;;;0.88;0.70;;;24.80;77.30;;;;;;4991732;28;20027;-67
2021/09/12 12:01:48;;;;;;;1.25;1.00;;;24.90;76.90;;;;;;4971355;28;20023;-67
2021/09/12 12:04:14;;;;;;;0.82;0.82;;;25.00;76.20;;;;;;4986341;28;20053;-67
2021/09/12 12:06:45;;;;;;;1.02;0.82;;;25.10;75.80;;;;;;4972153;28;20030;-67
2021/09/12 12:09:17;;;;;;;1.02;0.80;;;25.10;75.10;;;;;;4972553;28;20046;-67
2021/09/12 12:11:48;;;;;;;1.20;1.05;;;25.10;74.80;;;;;;4972507;28;20471;-67
2021/09/12 12:14:24;;;;;;;1.13;0.90;;;25.30;74.00;;;;;;4973631;28;20022;-67
2021/09/12 12:16:54;;;;;;;0.73;0.68;;;25.30;73.90;;;;;;4990458;28;20498;-67
2021/09/12 12:19:21;;;;;;;3.05;0.95;;;25.40;74.60;;;;;;4991685;28;20125;-67
2021/09/12 12:21:50;;;;;;;2.08;0.68;;;25.50;74.70;;;;;;4979222;28;20480;-67
2021/09/12 12:24:23;;;;;;;0.77;0.75;;;25.60;74.20;;;;;;4971900;28;20585;-67
2021/09/12 12:26:54;;;;;;;1.15;0.80;;;25.60;71.80;;;;;;4974550;28;20108;-67
2021/09/12 12:29:28;;;;;;;1.27;0.80;;;25.60;71.80;;;;;;4985167;28;20455;-67
2021/09/12 12:31:56;;;;;;;1.90;1.08;;;25.50;71.20;;;;;;4981882;28;20069;-67
2021/09/12 12:34:37;;;;;;;1.02;0.77;;;25.40;72.30;;;;;;4990262;28;20379;-67
2021/09/12 12:37:04;;;;;;;2.80;1.00;;;25.40;71.90;;;;;;4991415;28;20019;-67
2021/09/12 12:39:29;;;;;;;0.85;0.80;;;25.50;72.20;;;;;;4991373;28;20387;-67
2021/09/12 12:41:55;;;;;;;1.30;1.10;;;25.60;72.10;;;;;;4991597;28;20030;-67
2021/09/12 12:44:22;;;;;;;1.90;0.90;;;25.60;72.10;;;;;;4990498;28;20112;-67
2021/09/12 12:46:49;;;;;;;0.82;0.80;;;25.90;72.50;;;;;;4991364;28;20022;-67
2021/09/12 12:49:25;;;;;;;1.73;0.90;;;26.00;71.80;;;;;;4991100;28;20022;-68